sensor_id;sensor_type;location;lat;lon;timestamp;P1;durP1;ratioP1;P2;durP2;ratioP2
5876;SDS011;2964;42.144;24.730;2023-01-08T00:00:54;47.47;;;27.13;;
5876;SDS011;2964;42.144;24.730;2023-01-08T00:03:21;45.30;;;24.90;;
5876;SDS011;2964;42.144;24.730;2023-01-08T00:05:48;35.60;;;22.10;;
5876;SDS011;2964;42.144;24.730;2023-01-08T00:08:15;49.37;;;25.67;;
5876;SDS011;2964;42.144;24.730;2023-01-08T00:10:43;45.17;;;25.53;;
5876;SDS011;2964;42.144;24.730;2023-01-08T00:13:09;35.07;;;21.00;;
5876;SDS011;2964;42.144;24.730;2023-01-08T00:15:36;36.33;;;22.93;;
5876;SDS011;2964;42.144;24.730;2023-01-08T00:18:03;34.87;;;24.57;;
5876;SDS011;2964;42.144;24.730;2023-01-08T00:20:30;24.87;;;18.83;;
5876;SDS011;2964;42.144;24.730;2023-01-08T00:22:56;25.03;;;17.50;;
5876;SDS011;2964;42.144;24.730;2023-01-08T00:25:23;25.70;;;17.27;;
5876;SDS011;2964;42.144;24.730;2023-01-08T00:27:51;26.33;;;18.03;;
5876;SDS011;2964;42.144;24.730;2023-01-08T00:30:18;30.03;;;19.53;;
5876;SDS011;2964;42.144;24.730;2023-01-08T00:32:44;27.00;;;19.30;;
5876;SDS011;2964;42.144;24.730;2023-01-08T00:35:11;25.37;;;17.73;;
5876;SDS011;2964;42.144;24.730;2023-01-08T00:37:38;20.87;;;17.60;;
5876;SDS011;2964;42.144;24.730;2023-01-08T00:40:05;24.27;;;18.63;;
5876;SDS011;2964;42.144;24.730;2023-01-08T00:42:33;25.47;;;18.03;;
5876;SDS011;2964;42.144;24.730;2023-01-08T00:45:01;27.73;;;18.10;;
5876;SDS011;2964;42.144;24.730;2023-01-08T00:47:27;29.33;;;18.03;;
5876;SDS011;2964;42.144;24.730;2023-01-08T00:49:54;26.43;;;18.30;;
5876;SDS011;2964;42.144;24.730;2023-01-08T00:52:21;26.63;;;18.87;;
5876;SDS011;2964;42.144;24.730;2023-01-08T00:54:47;35.23;;;21.50;;
5876;SDS011;2964;42.144;24.730;2023-01-08T00:57:14;37.53;;;21.73;;
5876;SDS011;2964;42.144;24.730;2023-01-08T00:59:40;29.67;;;21.43;;
5876;SDS011;2964;42.144;24.730;2023-01-08T01:02:09;32.97;;;20.63;;
5876;SDS011;2964;42.144;24.730;2023-01-08T01:04:35;29.00;;;20.73;;
5876;SDS011;2964;42.144;24.730;2023-01-08T01:07:02;32.97;;;20.87;;
5876;SDS011;2964;42.144;24.730;2023-01-08T01:09:29;30.77;;;21.07;;
5876;SDS011;2964;42.144;24.730;2023-01-08T01:11:56;31.40;;;20.93;;
5876;SDS011;2964;42.144;24.730;2023-01-08T01:14:23;28.53;;;20.20;;
5876;SDS011;2964;42.144;24.730;2023-01-08T01:16:50;37.00;;;20.87;;
5876;SDS011;2964;42.144;24.730;2023-01-08T01:19:18;32.87;;;20.33;;
5876;SDS011;2964;42.144;24.730;2023-01-08T01:21:44;28.07;;;20.67;;
5876;SDS011;2964;42.144;24.730;2023-01-08T01:24:11;39.07;;;20.70;;
5876;SDS011;2964;42.144;24.730;2023-01-08T01:26:39;26.77;;;20.03;;
5876;SDS011;2964;42.144;24.730;2023-01-08T01:29:06;32.53;;;20.70;;
5876;SDS011;2964;42.144;24.730;2023-01-08T01:31:33;29.60;;;20.77;;
5876;SDS011;2964;42.144;24.730;2023-01-08T01:33:59;30.17;;;20.63;;
5876;SDS011;2964;42.144;24.730;2023-01-08T01:36:28;31.77;;;21.07;;
5876;SDS011;2964;42.144;24.730;2023-01-08T01:38:55;33.00;;;21.60;;
5876;SDS011;2964;42.144;24.730;2023-01-08T01:41:24;37.17;;;22.07;;
5876;SDS011;2964;42.144;24.730;2023-01-08T01:43:54;32.70;;;22.17;;
5876;SDS011;2964;42.144;24.730;2023-01-08T01:46:25;33.60;;;22.10;;
5876;SDS011;2964;42.144;24.730;2023-01-08T01:49:02;32.43;;;22.37;;
5876;SDS011;2964;42.144;24.730;2023-01-08T01:51:35;35.33;;;22.17;;
5876;SDS011;2964;42.144;24.730;2023-01-08T01:54:04;29.87;;;20.37;;
5876;SDS011;2964;42.144;24.730;2023-01-08T01:56:34;33.00;;;22.90;;
5876;SDS011;2964;42.144;24.730;2023-01-08T01:59:01;35.27;;;21.83;;
5876;SDS011;2964;42.144;24.730;2023-01-08T02:01:29;32.63;;;21.73;;
5876;SDS011;2964;42.144;24.730;2023-01-08T02:03:56;31.53;;;21.70;;
5876;SDS011;2964;42.144;24.730;2023-01-08T02:06:27;33.30;;;21.20;;
5876;SDS011;2964;42.144;24.730;2023-01-08T02:09:02;38.60;;;22.47;;
5876;SDS011;2964;42.144;24.730;2023-01-08T02:11:38;39.27;;;22.40;;
5876;SDS011;2964;42.144;24.730;2023-01-08T02:14:12;30.37;;;21.37;;
5876;SDS011;2964;42.144;24.730;2023-01-08T02:16:49;34.67;;;22.00;;
5876;SDS011;2964;42.144;24.730;2023-01-08T02:19:34;40.93;;;21.77;;
5876;SDS011;2964;42.144;24.730;2023-01-08T02:22:10;26.73;;;19.10;;
5876;SDS011;2964;42.144;24.730;2023-01-08T02:24:50;31.67;;;20.40;;
5876;SDS011;2964;42.144;24.730;2023-01-08T02:27:23;29.87;;;19.03;;
5876;SDS011;2964;42.144;24.730;2023-01-08T02:29:53;27.67;;;19.67;;
5876;SDS011;2964;42.144;24.730;2023-01-08T02:32:21;26.83;;;18.93;;
5876;SDS011;2964;42.144;24.730;2023-01-08T02:34:51;27.37;;;19.30;;
5876;SDS011;2964;42.144;24.730;2023-01-08T02:37:17;30.33;;;19.93;;
5876;SDS011;2964;42.144;24.730;2023-01-08T02:39:47;30.53;;;20.57;;
5876;SDS011;2964;42.144;24.730;2023-01-08T02:42:25;23.43;;;17.57;;
5876;SDS011;2964;42.144;24.730;2023-01-08T02:45:01;29.60;;;20.30;;
5876;SDS011;2964;42.144;24.730;2023-01-08T02:47:36;26.53;;;18.93;;
5876;SDS011;2964;42.144;24.730;2023-01-08T02:50:08;28.50;;;18.37;;
5876;SDS011;2964;42.144;24.730;2023-01-08T02:52:40;26.77;;;18.47;;
5876;SDS011;2964;42.144;24.730;2023-01-08T02:55:13;30.07;;;19.47;;
5876;SDS011;2964;42.144;24.730;2023-01-08T02:57:43;26.83;;;18.33;;
5876;SDS011;2964;42.144;24.730;2023-01-08T03:00:11;29.53;;;17.83;;
5876;SDS011;2964;42.144;24.730;2023-01-08T03:02:39;26.73;;;18.63;;
5876;SDS011;2964;42.144;24.730;2023-01-08T03:05:15;27.97;;;18.43;;
5876;SDS011;2964;42.144;24.730;2023-01-08T03:07:48;26.43;;;17.87;;
5876;SDS011;2964;42.144;24.730;2023-01-08T03:10:16;23.27;;;16.03;;
5876;SDS011;2964;42.144;24.730;2023-01-08T03:12:47;24.40;;;17.80;;
5876;SDS011;2964;42.144;24.730;2023-01-08T03:15:20;24.17;;;16.80;;
5876;SDS011;2964;42.144;24.730;2023-01-08T03:17:51;23.90;;;14.97;;
5876;SDS011;2964;42.144;24.730;2023-01-08T03:20:22;18.97;;;14.87;;
5876;SDS011;2964;42.144;24.730;2023-01-08T03:22:51;24.97;;;15.80;;
5876;SDS011;2964;42.144;24.730;2023-01-08T03:25:21;24.17;;;16.67;;
5876;SDS011;2964;42.144;24.730;2023-01-08T03:27:51;24.03;;;15.00;;
5876;SDS011;2964;42.144;24.730;2023-01-08T03:30:21;20.57;;;15.47;;
5876;SDS011;2964;42.144;24.730;2023-01-08T03:32:49;22.60;;;16.53;;
5876;SDS011;2964;42.144;24.730;2023-01-08T03:35:19;22.97;;;15.03;;
5876;SDS011;2964;42.144;24.730;2023-01-08T03:37:51;25.33;;;14.47;;
5876;SDS011;2964;42.144;24.730;2023-01-08T03:40:22;20.70;;;15.00;;
5876;SDS011;2964;42.144;24.730;2023-01-08T03:42:53;22.47;;;15.93;;
5876;SDS011;2964;42.144;24.730;2023-01-08T03:45:21;20.43;;;14.63;;
5876;SDS011;2964;42.144;24.730;2023-01-08T03:47:50;20.37;;;15.97;;
5876;SDS011;2964;42.144;24.730;2023-01-08T03:50:19;21.50;;;14.83;;
5876;SDS011;2964;42.144;24.730;2023-01-08T03:52:50;25.17;;;17.07;;
5876;SDS011;2964;42.144;24.730;2023-01-08T03:55:16;19.50;;;15.63;;
5876;SDS011;2964;42.144;24.730;2023-01-08T03:57:43;28.00;;;15.93;;
5876;SDS011;2964;42.144;24.730;2023-01-08T04:00:12;24.30;;;17.47;;
5876;SDS011;2964;42.144;24.730;2023-01-08T04:02:39;21.57;;;15.40;;
5876;SDS011;2964;42.144;24.730;2023-01-08T04:05:07;20.90;;;15.50;;
5876;SDS011;2964;42.144;24.730;2023-01-08T04:07:34;21.60;;;14.67;;
5876;SDS011;2964;42.144;24.730;2023-01-08T04:10:01;19.60;;;16.27;;
5876;SDS011;2964;42.144;24.730;2023-01-08T04:12:28;22.83;;;16.10;;
5876;SDS011;2964;42.144;24.730;2023-01-08T04:14:54;28.77;;;17.13;;
5876;SDS011;2964;42.144;24.730;2023-01-08T04:17:22;25.73;;;16.30;;
5876;SDS011;2964;42.144;24.730;2023-01-08T04:19:49;29.80;;;16.80;;
5876;SDS011;2964;42.144;24.730;2023-01-08T04:22:16;25.77;;;15.23;;
5876;SDS011;2964;42.144;24.730;2023-01-08T04:24:42;24.97;;;17.67;;
5876;SDS011;2964;42.144;24.730;2023-01-08T04:27:09;22.50;;;16.17;;
5876;SDS011;2964;42.144;24.730;2023-01-08T04:29:36;23.03;;;16.37;;
5876;SDS011;2964;42.144;24.730;2023-01-08T04:32:02;20.90;;;15.93;;
5876;SDS011;2964;42.144;24.730;2023-01-08T04:34:31;23.27;;;16.77;;
5876;SDS011;2964;42.144;24.730;2023-01-08T04:36:57;23.60;;;17.70;;
5876;SDS011;2964;42.144;24.730;2023-01-08T04:39:24;27.00;;;17.13;;
5876;SDS011;2964;42.144;24.730;2023-01-08T04:41:51;25.50;;;17.47;;
5876;SDS011;2964;42.144;24.730;2023-01-08T04:44:18;28.67;;;18.47;;
5876;SDS011;2964;42.144;24.730;2023-01-08T04:46:44;26.97;;;17.50;;
5876;SDS011;2964;42.144;24.730;2023-01-08T04:49:11;25.53;;;17.53;;
5876;SDS011;2964;42.144;24.730;2023-01-08T04:51:39;24.53;;;17.53;;
5876;SDS011;2964;42.144;24.730;2023-01-08T04:54:06;23.17;;;17.00;;
5876;SDS011;2964;42.144;24.730;2023-01-08T04:56:32;22.77;;;16.43;;
5876;SDS011;2964;42.144;24.730;2023-01-08T04:58:59;25.10;;;16.23;;
5876;SDS011;2964;42.144;24.730;2023-01-08T05:01:26;19.20;;;15.50;;
5876;SDS011;2964;42.144;24.730;2023-01-08T05:03:53;24.07;;;16.27;;
5876;SDS011;2964;42.144;24.730;2023-01-08T05:06:20;21.17;;;16.43;;
5876;SDS011;2964;42.144;24.730;2023-01-08T05:08:49;20.63;;;14.73;;
5876;SDS011;2964;42.144;24.730;2023-01-08T05:11:16;15.57;;;13.93;;
5876;SDS011;2964;42.144;24.730;2023-01-08T05:13:42;21.47;;;15.17;;
5876;SDS011;2964;42.144;24.730;2023-01-08T05:16:09;19.67;;;14.33;;
5876;SDS011;2964;42.144;24.730;2023-01-08T05:18:36;20.00;;;13.60;;
5876;SDS011;2964;42.144;24.730;2023-01-08T05:21:03;16.73;;;13.63;;
5876;SDS011;2964;42.144;24.730;2023-01-08T05:23:30;18.20;;;12.60;;
5876;SDS011;2964;42.144;24.730;2023-01-08T05:26:01;19.73;;;13.80;;
5876;SDS011;2964;42.144;24.730;2023-01-08T05:28:29;18.80;;;12.83;;
5876;SDS011;2964;42.144;24.730;2023-01-08T05:30:56;18.30;;;12.77;;
5876;SDS011;2964;42.144;24.730;2023-01-08T05:33:23;17.53;;;12.70;;
5876;SDS011;2964;42.144;24.730;2023-01-08T05:35:51;14.50;;;11.33;;
5876;SDS011;2964;42.144;24.730;2023-01-08T05:38:18;14.17;;;11.63;;
5876;SDS011;2964;42.144;24.730;2023-01-08T05:40:44;12.70;;;11.47;;
5876;SDS011;2964;42.144;24.730;2023-01-08T05:43:12;12.93;;;11.63;;
5876;SDS011;2964;42.144;24.730;2023-01-08T05:45:39;13.00;;;11.67;;
5876;SDS011;2964;42.144;24.730;2023-01-08T05:48:06;13.93;;;12.07;;
5876;SDS011;2964;42.144;24.730;2023-01-08T05:50:33;15.17;;;11.83;;
5876;SDS011;2964;42.144;24.730;2023-01-08T05:53:00;13.53;;;12.13;;
5876;SDS011;2964;42.144;24.730;2023-01-08T05:55:31;14.77;;;11.00;;
5876;SDS011;2964;42.144;24.730;2023-01-08T05:57:59;13.23;;;11.53;;
5876;SDS011;2964;42.144;24.730;2023-01-08T06:00:27;19.10;;;11.77;;
5876;SDS011;2964;42.144;24.730;2023-01-08T06:02:54;13.63;;;11.93;;
5876;SDS011;2964;42.144;24.730;2023-01-08T06:05:21;21.47;;;13.57;;
5876;SDS011;2964;42.144;24.730;2023-01-08T06:07:47;18.53;;;12.57;;
5876;SDS011;2964;42.144;24.730;2023-01-08T06:10:14;16.97;;;12.63;;
5876;SDS011;2964;42.144;24.730;2023-01-08T06:12:41;18.20;;;12.87;;
5876;SDS011;2964;42.144;24.730;2023-01-08T06:15:08;16.27;;;13.17;;
5876;SDS011;2964;42.144;24.730;2023-01-08T06:17:38;18.83;;;13.40;;
5876;SDS011;2964;42.144;24.730;2023-01-08T06:20:05;19.17;;;14.03;;
5876;SDS011;2964;42.144;24.730;2023-01-08T06:22:32;16.93;;;13.33;;
5876;SDS011;2964;42.144;24.730;2023-01-08T06:24:59;18.17;;;13.80;;
5876;SDS011;2964;42.144;24.730;2023-01-08T06:27:26;18.67;;;13.47;;
5876;SDS011;2964;42.144;24.730;2023-01-08T06:29:52;19.70;;;13.70;;
5876;SDS011;2964;42.144;24.730;2023-01-08T06:32:19;26.07;;;14.43;;
5876;SDS011;2964;42.144;24.730;2023-01-08T06:34:47;21.03;;;14.67;;
5876;SDS011;2964;42.144;24.730;2023-01-08T06:37:14;18.37;;;13.27;;
5876;SDS011;2964;42.144;24.730;2023-01-08T06:39:40;22.47;;;16.07;;
5876;SDS011;2964;42.144;24.730;2023-01-08T06:42:07;17.83;;;13.20;;
5876;SDS011;2964;42.144;24.730;2023-01-08T06:44:34;21.03;;;13.77;;
5876;SDS011;2964;42.144;24.730;2023-01-08T06:47:00;17.23;;;13.00;;
5876;SDS011;2964;42.144;24.730;2023-01-08T06:49:27;12.53;;;11.20;;
5876;SDS011;2964;42.144;24.730;2023-01-08T06:51:55;18.43;;;12.73;;
5876;SDS011;2964;42.144;24.730;2023-01-08T06:54:22;16.97;;;12.27;;
5876;SDS011;2964;42.144;24.730;2023-01-08T06:56:48;15.57;;;13.07;;
5876;SDS011;2964;42.144;24.730;2023-01-08T06:59:15;16.20;;;11.90;;
5876;SDS011;2964;42.144;24.730;2023-01-08T07:01:42;17.70;;;12.57;;
5876;SDS011;2964;42.144;24.730;2023-01-08T07:04:08;16.90;;;12.70;;
5876;SDS011;2964;42.144;24.730;2023-01-08T07:06:35;29.80;;;18.77;;
5876;SDS011;2964;42.144;24.730;2023-01-08T07:09:03;38.07;;;20.47;;
5876;SDS011;2964;42.144;24.730;2023-01-08T07:11:30;27.23;;;17.60;;
5876;SDS011;2964;42.144;24.730;2023-01-08T07:13:56;24.70;;;16.10;;
5876;SDS011;2964;42.144;24.730;2023-01-08T07:16:23;15.60;;;12.50;;
5876;SDS011;2964;42.144;24.730;2023-01-08T07:18:50;23.70;;;17.33;;
5876;SDS011;2964;42.144;24.730;2023-01-08T07:21:16;19.40;;;15.27;;
5876;SDS011;2964;42.144;24.730;2023-01-08T07:23:48;15.67;;;12.70;;
5876;SDS011;2964;42.144;24.730;2023-01-08T07:26:24;19.57;;;13.47;;
5876;SDS011;2964;42.144;24.730;2023-01-08T07:28:50;20.37;;;13.53;;
5876;SDS011;2964;42.144;24.730;2023-01-08T07:31:17;15.97;;;11.73;;
5876;SDS011;2964;42.144;24.730;2023-01-08T07:33:43;13.40;;;11.53;;
5876;SDS011;2964;42.144;24.730;2023-01-08T07:36:10;15.73;;;12.67;;
5876;SDS011;2964;42.144;24.730;2023-01-08T07:38:37;14.17;;;11.40;;
5876;SDS011;2964;42.144;24.730;2023-01-08T07:41:04;12.43;;;10.63;;
5876;SDS011;2964;42.144;24.730;2023-01-08T07:43:31;12.23;;;11.13;;
5876;SDS011;2964;42.144;24.730;2023-01-08T07:46:00;13.93;;;12.37;;
5876;SDS011;2964;42.144;24.730;2023-01-08T07:48:27;11.53;;;10.47;;
5876;SDS011;2964;42.144;24.730;2023-01-08T07:50:59;14.17;;;11.13;;
5876;SDS011;2964;42.144;24.730;2023-01-08T07:53:26;16.87;;;11.97;;
5876;SDS011;2964;42.144;24.730;2023-01-08T07:55:57;15.47;;;12.37;;
5876;SDS011;2964;42.144;24.730;2023-01-08T07:58:24;12.73;;;11.43;;
5876;SDS011;2964;42.144;24.730;2023-01-08T08:00:52;13.30;;;10.87;;
5876;SDS011;2964;42.144;24.730;2023-01-08T08:03:19;13.00;;;11.70;;
5876;SDS011;2964;42.144;24.730;2023-01-08T08:05:45;13.23;;;11.80;;
5876;SDS011;2964;42.144;24.730;2023-01-08T08:08:12;13.83;;;12.47;;
5876;SDS011;2964;42.144;24.730;2023-01-08T08:10:40;14.53;;;12.40;;
5876;SDS011;2964;42.144;24.730;2023-01-08T08:13:08;16.00;;;12.67;;
5876;SDS011;2964;42.144;24.730;2023-01-08T08:15:35;18.87;;;13.53;;
5876;SDS011;2964;42.144;24.730;2023-01-08T08:18:04;16.23;;;13.23;;
5876;SDS011;2964;42.144;24.730;2023-01-08T08:20:32;20.50;;;13.67;;
5876;SDS011;2964;42.144;24.730;2023-01-08T08:22:59;19.83;;;14.57;;
5876;SDS011;2964;42.144;24.730;2023-01-08T08:25:26;24.43;;;16.20;;
5876;SDS011;2964;42.144;24.730;2023-01-08T08:27:56;18.57;;;14.60;;
5876;SDS011;2964;42.144;24.730;2023-01-08T08:30:30;16.23;;;13.57;;
5876;SDS011;2964;42.144;24.730;2023-01-08T08:33:09;16.87;;;12.97;;
5876;SDS011;2964;42.144;24.730;2023-01-08T08:35:36;16.30;;;12.43;;
5876;SDS011;2964;42.144;24.730;2023-01-08T08:38:03;12.17;;;10.80;;
5876;SDS011;2964;42.144;24.730;2023-01-08T08:40:30;13.37;;;12.07;;
5876;SDS011;2964;42.144;24.730;2023-01-08T08:42:57;14.57;;;12.30;;
5876;SDS011;2964;42.144;24.730;2023-01-08T08:45:35;17.50;;;13.63;;
5876;SDS011;2964;42.144;24.730;2023-01-08T08:48:04;11.80;;;10.63;;
5876;SDS011;2964;42.144;24.730;2023-01-08T08:50:33;14.10;;;11.47;;
5876;SDS011;2964;42.144;24.730;2023-01-08T08:53:00;11.90;;;10.30;;
5876;SDS011;2964;42.144;24.730;2023-01-08T08:55:28;19.13;;;13.83;;
5876;SDS011;2964;42.144;24.730;2023-01-08T08:58:00;12.63;;;9.37;;
5876;SDS011;2964;42.144;24.730;2023-01-08T09:00:28;10.27;;;9.13;;
5876;SDS011;2964;42.144;24.730;2023-01-08T09:02:54;10.53;;;9.60;;
5876;SDS011;2964;42.144;24.730;2023-01-08T09:05:21;12.23;;;10.00;;
5876;SDS011;2964;42.144;24.730;2023-01-08T09:07:49;10.23;;;9.40;;
5876;SDS011;2964;42.144;24.730;2023-01-08T09:10:16;10.40;;;9.53;;
5876;SDS011;2964;42.144;24.730;2023-01-08T09:12:43;11.43;;;10.27;;
5876;SDS011;2964;42.144;24.730;2023-01-08T09:15:10;10.33;;;9.40;;
5876;SDS011;2964;42.144;24.730;2023-01-08T09:17:37;9.63;;;8.80;;
5876;SDS011;2964;42.144;24.730;2023-01-08T09:20:10;9.77;;;8.73;;
5876;SDS011;2964;42.144;24.730;2023-01-08T09:22:37;9.17;;;8.37;;
5876;SDS011;2964;42.144;24.730;2023-01-08T09:25:05;13.00;;;9.37;;
5876;SDS011;2964;42.144;24.730;2023-01-08T09:27:32;10.30;;;8.83;;
5876;SDS011;2964;42.144;24.730;2023-01-08T09:29:59;10.10;;;9.13;;
5876;SDS011;2964;42.144;24.730;2023-01-08T09:32:25;9.37;;;8.67;;
5876;SDS011;2964;42.144;24.730;2023-01-08T09:34:52;9.60;;;8.90;;
5876;SDS011;2964;42.144;24.730;2023-01-08T09:37:18;9.37;;;8.47;;
5876;SDS011;2964;42.144;24.730;2023-01-08T09:39:49;8.60;;;7.80;;
5876;SDS011;2964;42.144;24.730;2023-01-08T09:42:19;9.00;;;8.30;;
5876;SDS011;2964;42.144;24.730;2023-01-08T09:44:49;9.27;;;8.60;;
5876;SDS011;2964;42.144;24.730;2023-01-08T09:47:22;10.03;;;9.33;;
5876;SDS011;2964;42.144;24.730;2023-01-08T09:49:51;8.53;;;7.70;;
5876;SDS011;2964;42.144;24.730;2023-01-08T09:52:22;10.40;;;9.67;;
5876;SDS011;2964;42.144;24.730;2023-01-08T09:54:48;8.70;;;8.10;;
5876;SDS011;2964;42.144;24.730;2023-01-08T09:57:16;9.73;;;9.10;;
5876;SDS011;2964;42.144;24.730;2023-01-08T09:59:46;9.40;;;8.70;;
5876;SDS011;2964;42.144;24.730;2023-01-08T10:02:15;9.50;;;8.67;;
5876;SDS011;2964;42.144;24.730;2023-01-08T10:04:47;8.73;;;7.97;;
5876;SDS011;2964;42.144;24.730;2023-01-08T10:07:19;7.63;;;7.07;;
5876;SDS011;2964;42.144;24.730;2023-01-08T10:09:54;8.37;;;7.77;;
5876;SDS011;2964;42.144;24.730;2023-01-08T10:12:34;8.50;;;7.90;;
5876;SDS011;2964;42.144;24.730;2023-01-08T10:15:10;8.63;;;7.93;;
5876;SDS011;2964;42.144;24.730;2023-01-08T10:17:40;9.73;;;8.87;;
5876;SDS011;2964;42.144;24.730;2023-01-08T10:20:14;14.77;;;6.90;;
5876;SDS011;2964;42.144;24.730;2023-01-08T10:22:52;8.87;;;7.50;;
5876;SDS011;2964;42.144;24.730;2023-01-08T10:25:45;8.60;;;7.80;;
5876;SDS011;2964;42.144;24.730;2023-01-08T10:28:20;8.47;;;7.40;;
5876;SDS011;2964;42.144;24.730;2023-01-08T10:30:49;8.77;;;8.00;;
5876;SDS011;2964;42.144;24.730;2023-01-08T10:33:17;8.33;;;7.63;;
5876;SDS011;2964;42.144;24.730;2023-01-08T10:35:51;8.80;;;8.10;;
5876;SDS011;2964;42.144;24.730;2023-01-08T10:38:23;9.17;;;8.53;;
5876;SDS011;2964;42.144;24.730;2023-01-08T10:40:52;8.83;;;8.13;;
5876;SDS011;2964;42.144;24.730;2023-01-08T10:43:23;8.10;;;7.40;;
5876;SDS011;2964;42.144;24.730;2023-01-08T10:45:54;9.90;;;9.00;;
5876;SDS011;2964;42.144;24.730;2023-01-08T10:48:24;9.43;;;8.73;;
5876;SDS011;2964;42.144;24.730;2023-01-08T10:51:12;9.00;;;8.20;;
5876;SDS011;2964;42.144;24.730;2023-01-08T10:53:48;8.17;;;7.47;;
5876;SDS011;2964;42.144;24.730;2023-01-08T10:56:17;8.63;;;8.13;;
5876;SDS011;2964;42.144;24.730;2023-01-08T10:58:47;9.83;;;9.00;;
5876;SDS011;2964;42.144;24.730;2023-01-08T11:01:15;9.07;;;8.33;;
5876;SDS011;2964;42.144;24.730;2023-01-08T11:03:48;9.57;;;8.67;;
5876;SDS011;2964;42.144;24.730;2023-01-08T11:06:18;8.83;;;8.03;;
5876;SDS011;2964;42.144;24.730;2023-01-08T11:08:48;8.37;;;7.63;;
5876;SDS011;2964;42.144;24.730;2023-01-08T11:11:17;8.63;;;7.83;;
5876;SDS011;2964;42.144;24.730;2023-01-08T11:13:50;8.07;;;7.37;;
5876;SDS011;2964;42.144;24.730;2023-01-08T11:16:30;9.10;;;8.30;;
5876;SDS011;2964;42.144;24.730;2023-01-08T11:18:59;9.07;;;8.37;;
5876;SDS011;2964;42.144;24.730;2023-01-08T11:21:26;8.30;;;7.70;;
5876;SDS011;2964;42.144;24.730;2023-01-08T11:26:43;8.73;;;8.20;;
5876;SDS011;2964;42.144;24.730;2023-01-08T11:29:15;8.57;;;7.53;;
5876;SDS011;2964;42.144;24.730;2023-01-08T11:31:48;7.70;;;7.00;;
5876;SDS011;2964;42.144;24.730;2023-01-08T11:34:19;9.47;;;8.27;;
5876;SDS011;2964;42.144;24.730;2023-01-08T11:36:53;8.70;;;8.00;;
5876;SDS011;2964;42.144;24.730;2023-01-08T11:39:24;8.67;;;7.73;;
5876;SDS011;2964;42.144;24.730;2023-01-08T11:42:03;8.87;;;7.93;;
5876;SDS011;2964;42.144;24.730;2023-01-08T11:44:42;9.10;;;8.10;;
5876;SDS011;2964;42.144;24.730;2023-01-08T11:47:19;9.57;;;8.33;;
5876;SDS011;2964;42.144;24.730;2023-01-08T11:49:58;11.80;;;8.17;;
5876;SDS011;2964;42.144;24.730;2023-01-08T11:52:40;9.57;;;8.77;;
5876;SDS011;2964;42.144;24.730;2023-01-08T11:55:23;9.13;;;8.23;;
5876;SDS011;2964;42.144;24.730;2023-01-08T11:58:04;9.20;;;8.07;;
5876;SDS011;2964;42.144;24.730;2023-01-08T12:00:51;8.90;;;8.10;;
5876;SDS011;2964;42.144;24.730;2023-01-08T12:03:27;8.77;;;7.87;;
5876;SDS011;2964;42.144;24.730;2023-01-08T12:06:00;9.37;;;8.57;;
5876;SDS011;2964;42.144;24.730;2023-01-08T12:08:34;8.97;;;8.27;;
5876;SDS011;2964;42.144;24.730;2023-01-08T12:11:06;10.90;;;9.10;;
5876;SDS011;2964;42.144;24.730;2023-01-08T12:13:45;10.40;;;8.90;;
5876;SDS011;2964;42.144;24.730;2023-01-08T12:16:35;9.43;;;8.83;;
5876;SDS011;2964;42.144;24.730;2023-01-08T12:19:16;9.43;;;8.53;;
5876;SDS011;2964;42.144;24.730;2023-01-08T12:21:55;9.20;;;8.40;;
5876;SDS011;2964;42.144;24.730;2023-01-08T12:24:44;9.13;;;8.33;;
5876;SDS011;2964;42.144;24.730;2023-01-08T12:27:33;9.77;;;8.87;;
5876;SDS011;2964;42.144;24.730;2023-01-08T12:30:12;10.10;;;9.17;;
5876;SDS011;2964;42.144;24.730;2023-01-08T12:32:50;10.47;;;9.67;;
5876;SDS011;2964;42.144;24.730;2023-01-08T12:35:22;9.23;;;8.50;;
5876;SDS011;2964;42.144;24.730;2023-01-08T12:37:53;10.20;;;8.50;;
5876;SDS011;2964;42.144;24.730;2023-01-08T12:40:25;9.27;;;8.47;;
5876;SDS011;2964;42.144;24.730;2023-01-08T12:42:58;10.67;;;9.53;;
5876;SDS011;2964;42.144;24.730;2023-01-08T12:45:29;11.67;;;8.80;;
5876;SDS011;2964;42.144;24.730;2023-01-08T12:48:02;12.87;;;10.10;;
5876;SDS011;2964;42.144;24.730;2023-01-08T12:50:38;9.67;;;8.87;;
5876;SDS011;2964;42.144;24.730;2023-01-08T12:53:17;10.50;;;9.60;;
5876;SDS011;2964;42.144;24.730;2023-01-08T12:55:51;10.77;;;9.77;;
5876;SDS011;2964;42.144;24.730;2023-01-08T12:58:30;10.47;;;9.57;;
5876;SDS011;2964;42.144;24.730;2023-01-08T13:01:06;10.60;;;9.70;;
5876;SDS011;2964;42.144;24.730;2023-01-08T13:03:43;10.37;;;9.47;;
5876;SDS011;2964;42.144;24.730;2023-01-08T13:06:11;12.57;;;9.83;;
5876;SDS011;2964;42.144;24.730;2023-01-08T13:08:40;10.60;;;9.63;;
5876;SDS011;2964;42.144;24.730;2023-01-08T13:11:21;11.00;;;9.20;;
5876;SDS011;2964;42.144;24.730;2023-01-08T13:13:56;11.07;;;8.67;;
5876;SDS011;2964;42.144;24.730;2023-01-08T13:16:24;12.00;;;9.10;;
5876;SDS011;2964;42.144;24.730;2023-01-08T13:18:56;9.50;;;8.80;;
5876;SDS011;2964;42.144;24.730;2023-01-08T13:21:31;11.07;;;9.40;;
5876;SDS011;2964;42.144;24.730;2023-01-08T13:24:04;11.40;;;10.03;;
5876;SDS011;2964;42.144;24.730;2023-01-08T13:26:44;11.50;;;10.07;;
5876;SDS011;2964;42.144;24.730;2023-01-08T13:29:24;10.20;;;9.17;;
5876;SDS011;2964;42.144;24.730;2023-01-08T13:32:25;10.80;;;9.80;;
5876;SDS011;2964;42.144;24.730;2023-01-08T13:35:16;13.93;;;10.53;;
5876;SDS011;2964;42.144;24.730;2023-01-08T13:37:47;11.00;;;9.10;;
5876;SDS011;2964;42.144;24.730;2023-01-08T13:40:37;11.10;;;10.00;;
5876;SDS011;2964;42.144;24.730;2023-01-08T13:43:14;11.93;;;10.30;;
5876;SDS011;2964;42.144;24.730;2023-01-08T13:45:44;13.10;;;10.13;;
5876;SDS011;2964;42.144;24.730;2023-01-08T13:48:20;11.37;;;10.17;;
5876;SDS011;2964;42.144;24.730;2023-01-08T13:50:50;11.10;;;9.97;;
5876;SDS011;2964;42.144;24.730;2023-01-08T13:53:17;11.30;;;9.43;;
5876;SDS011;2964;42.144;24.730;2023-01-08T13:55:46;10.97;;;9.40;;
5876;SDS011;2964;42.144;24.730;2023-01-08T13:58:22;9.20;;;8.47;;
5876;SDS011;2964;42.144;24.730;2023-01-08T14:00:51;10.10;;;9.30;;
5876;SDS011;2964;42.144;24.730;2023-01-08T14:03:23;9.43;;;8.60;;
5876;SDS011;2964;42.144;24.730;2023-01-08T14:05:52;8.30;;;7.70;;
5876;SDS011;2964;42.144;24.730;2023-01-08T14:08:31;9.13;;;8.23;;
5876;SDS011;2964;42.144;24.730;2023-01-08T14:10:58;10.93;;;8.70;;
5876;SDS011;2964;42.144;24.730;2023-01-08T14:13:25;9.53;;;8.67;;
5876;SDS011;2964;42.144;24.730;2023-01-08T14:15:54;9.77;;;8.77;;
5876;SDS011;2964;42.144;24.730;2023-01-08T14:18:26;13.43;;;8.93;;
5876;SDS011;2964;42.144;24.730;2023-01-08T14:20:54;10.17;;;9.20;;
5876;SDS011;2964;42.144;24.730;2023-01-08T14:23:22;9.37;;;8.60;;
5876;SDS011;2964;42.144;24.730;2023-01-08T14:25:51;14.87;;;9.47;;
5876;SDS011;2964;42.144;24.730;2023-01-08T14:28:19;11.07;;;9.00;;
5876;SDS011;2964;42.144;24.730;2023-01-08T14:30:48;13.13;;;9.10;;
5876;SDS011;2964;42.144;24.730;2023-01-08T14:33:16;9.90;;;8.70;;
5876;SDS011;2964;42.144;24.730;2023-01-08T14:35:46;10.43;;;9.30;;
5876;SDS011;2964;42.144;24.730;2023-01-08T14:38:16;9.33;;;8.53;;
5876;SDS011;2964;42.144;24.730;2023-01-08T14:40:44;14.87;;;8.87;;
5876;SDS011;2964;42.144;24.730;2023-01-08T14:43:16;11.00;;;9.73;;
5876;SDS011;2964;42.144;24.730;2023-01-08T14:45:45;11.10;;;9.93;;
5876;SDS011;2964;42.144;24.730;2023-01-08T14:48:16;13.13;;;10.27;;
5876;SDS011;2964;42.144;24.730;2023-01-08T14:50:51;10.67;;;9.60;;
5876;SDS011;2964;42.144;24.730;2023-01-08T14:53:30;12.73;;;9.73;;
5876;SDS011;2964;42.144;24.730;2023-01-08T14:56:00;13.90;;;9.57;;
5876;SDS011;2964;42.144;24.730;2023-01-08T14:58:33;10.67;;;9.63;;
5876;SDS011;2964;42.144;24.730;2023-01-08T15:01:04;19.40;;;9.80;;
5876;SDS011;2964;42.144;24.730;2023-01-08T15:03:33;10.37;;;9.20;;